Terminal Aerodrome Forecast
Issued by NWS

Home | Current Version | Previous Version | Text Only | Print | Product List | Glossary On
Versions: 1 2 3 4 5 6 7 8 9 10 11 12 13 14 15
000
FTUS41 KLWX 032347
TAFMTN
TAF
KMTN 032347Z 0400/0424 14009KT 2SM -FZRA OVC009
     FM040300 22007KT 2SM BR OVC004
     FM041300 25005KT 2SM -RA OVC004
      AMD NOT SKED 0403/0412=

USA.gov is the U.S. government's official web portal to all federal, state and local government web resources and services.